createdAt,value
2017-08-03T00:00:49.855Z,49.81
2017-08-03T00:03:23.795Z,49.78
2017-08-03T00:05:56.776Z,49.88
2017-08-03T00:08:31.319Z,49.65
2017-08-03T00:11:04.626Z,49.82
2017-08-03T00:13:40.274Z,49.74
2017-08-03T00:16:20.738Z,49.89
2017-08-03T00:18:53.934Z,49.74
2017-08-03T00:21:26.599Z,49.87
2017-08-03T00:24:02.440Z,49.76
2017-08-03T00:26:35.748Z,49.91
2017-08-03T00:29:09.244Z,49.93
2017-08-03T00:31:44.812Z,49.89
2017-08-03T00:34:18.322Z,49.97
2017-08-03T00:36:55.769Z,50.09
2017-08-03T00:39:33.363Z,50.00
2017-08-03T00:42:05.537Z,50.11
2017-08-03T00:44:40.010Z,50.21
2017-08-03T00:47:12.677Z,50.13
2017-08-03T00:49:46.985Z,50.33
2017-08-03T00:52:19.442Z,50.31
2017-08-03T00:54:51.394Z,50.47
2017-08-03T00:57:23.614Z,50.55
2017-08-03T00:59:56.500Z,50.57
2017-08-03T01:02:29.265Z,50.47
2017-08-03T01:05:01.799Z,50.61
2017-08-03T01:07:33.745Z,50.71
2017-08-03T01:10:05.614Z,50.66
2017-08-03T01:12:38.744Z,50.66
2017-08-03T01:15:11.043Z,50.66
2017-08-03T01:17:45.546Z,50.65
2017-08-03T01:20:18.208Z,50.64
2017-08-03T01:22:50.510Z,50.73
2017-08-03T01:25:24.007Z,50.78
2017-08-03T01:27:56.525Z,50.77
2017-08-03T01:30:30.292Z,50.78
2017-08-03T01:33:03.480Z,50.71
2017-08-03T01:35:36.058Z,50.94
2017-08-03T01:38:08.952Z,50.88
2017-08-03T01:40:44.023Z,50.99
2017-08-03T01:43:16.234Z,50.99
2017-08-03T01:45:49.713Z,50.98
2017-08-03T01:48:22.284Z,50.93
2017-08-03T01:50:55.045Z,51.03
2017-08-03T01:53:27.706Z,51.22
2017-08-03T01:56:00.285Z,51.37
2017-08-03T01:58:33.407Z,51.39
2017-08-03T02:01:08.076Z,51.43
2017-08-03T02:03:42.982Z,51.38
2017-08-03T02:06:16.434Z,51.43
2017-08-03T02:08:49.677Z,51.26
2017-08-03T02:11:22.578Z,51.41
2017-08-03T02:13:55.437Z,51.37
2017-08-03T02:16:27.811Z,51.47
2017-08-03T02:19:00.952Z,51.48
2017-08-03T02:21:33.940Z,51.44
2017-08-03T02:24:20.709Z,51.56
2017-08-03T02:26:53.667Z,51.57
2017-08-03T02:29:26.619Z,51.71
2017-08-03T02:32:02.093Z,51.78
2017-08-03T02:34:35.907Z,51.68
2017-08-03T02:37:09.592Z,51.70
2017-08-03T02:39:43.552Z,51.79
2017-08-03T02:42:16.286Z,51.90
2017-08-03T02:44:49.813Z,52.03
2017-08-03T02:47:22.430Z,52.11
2017-08-03T02:49:54.974Z,52.19
2017-08-03T02:52:27.587Z,52.14
2017-08-03T02:55:00.392Z,52.07
2017-08-03T02:57:33.422Z,51.98
2017-08-03T03:00:06.873Z,52.20
2017-08-03T03:02:39.666Z,52.25
2017-08-03T03:05:12.480Z,52.31
2017-08-03T03:07:46.905Z,52.22
2017-08-03T03:10:20.243Z,52.30
2017-08-03T03:12:52.522Z,52.27
2017-08-03T03:15:25.288Z,52.21
2017-08-03T03:17:57.669Z,52.22
2017-08-03T03:20:30.669Z,52.29
2017-08-03T03:23:02.964Z,52.52
2017-08-03T03:25:35.312Z,52.45
2017-08-03T03:28:08.198Z,52.46
2017-08-03T03:30:40.766Z,52.49
2017-08-03T03:33:14.920Z,52.52
2017-08-03T03:35:49.600Z,52.64
2017-08-03T03:38:22.209Z,52.75
2017-08-03T03:40:55.519Z,52.69
2017-08-03T03:43:29.155Z,52.80
2017-08-03T03:46:02.159Z,52.68
2017-08-03T03:48:34.709Z,52.79
2017-08-03T03:51:07.647Z,52.72
2017-08-03T03:53:40.650Z,52.73
2017-08-03T03:56:14.660Z,52.74
2017-08-03T03:58:49.206Z,52.81
2017-08-03T04:01:21.780Z,52.76
2017-08-03T04:03:54.415Z,52.76
2017-08-03T04:06:28.126Z,52.91
2017-08-03T04:09:00.832Z,52.88
2017-08-03T04:11:33.626Z,52.83
2017-08-03T04:14:06.050Z,52.88
2017-08-03T04:16:38.716Z,52.99
2017-08-03T04:19:10.851Z,52.93
2017-08-03T04:21:45.374Z,52.93
2017-08-03T04:24:17.918Z,52.74
2017-08-03T04:26:50.275Z,52.98
2017-08-03T04:29:24.464Z,52.82
2017-08-03T04:31:57.113Z,52.81
2017-08-03T04:34:29.896Z,53.05
2017-08-03T04:37:02.251Z,52.97
2017-08-03T04:39:35.105Z,52.94
2017-08-03T04:42:07.649Z,52.78
2017-08-03T04:44:39.962Z,52.89
2017-08-03T04:47:12.286Z,52.93
2017-08-03T04:49:47.901Z,52.88
2017-08-03T04:52:20.394Z,52.88
2017-08-03T04:54:52.989Z,52.84
2017-08-03T04:57:27.191Z,53.00
2017-08-03T05:00:01.530Z,52.84
2017-08-03T05:02:35.488Z,53.00
2017-08-03T05:05:08.877Z,52.97
2017-08-03T05:07:44.276Z,52.93
2017-08-03T05:10:17.290Z,53.07
2017-08-03T05:12:53.164Z,52.95
2017-08-03T05:15:26.017Z,53.17
2017-08-03T05:17:58.718Z,53.20
2017-08-03T05:20:31.030Z,53.23
2017-08-03T05:23:03.946Z,53.11
2017-08-03T05:25:36.631Z,53.37
2017-08-03T05:28:10.803Z,53.34
2017-08-03T05:30:46.673Z,53.37
2017-08-03T05:33:22.250Z,53.44
2017-08-03T05:35:55.477Z,53.59
2017-08-03T05:38:27.799Z,53.56
2017-08-03T05:41:00.382Z,53.67
2017-08-03T05:43:35.431Z,53.70
2017-08-03T05:46:08.873Z,53.76
2017-08-03T05:48:44.268Z,54.04
2017-08-03T05:51:19.057Z,54.25
2017-08-03T05:53:52.234Z,54.23
2017-08-03T05:56:27.264Z,54.40
2017-08-03T05:59:00.214Z,54.66
2017-08-03T06:01:33.337Z,54.82
2017-08-03T06:04:05.700Z,55.14
2017-08-03T06:06:38.037Z,55.31
2017-08-03T06:09:10.926Z,55.47
2017-08-03T06:11:45.495Z,55.69
2017-08-03T06:14:19.891Z,55.29
2017-08-03T06:16:52.875Z,56.38
2017-08-03T06:19:25.487Z,56.05
2017-08-03T06:21:59.170Z,56.34
2017-08-03T06:24:31.829Z,56.06
2017-08-03T06:27:05.812Z,55.89
2017-08-03T06:29:38.138Z,56.03
2017-08-03T06:32:10.874Z,56.42
2017-08-03T06:34:44.483Z,56.46
2017-08-03T06:37:16.839Z,56.71
2017-08-03T06:39:49.512Z,56.54
2017-08-03T06:42:23.893Z,56.78
2017-08-03T06:44:58.356Z,57.01
2017-08-03T06:47:30.803Z,57.18
2017-08-03T06:50:03.785Z,57.73
2017-08-03T06:52:36.335Z,57.67
2017-08-03T06:55:08.524Z,57.74
2017-08-03T06:57:41.251Z,58.53
2017-08-03T07:00:14.068Z,58.75
2017-08-03T07:02:48.422Z,58.98
2017-08-03T07:05:21.386Z,59.76
2017-08-03T07:07:54.002Z,59.84
2017-08-03T07:10:26.932Z,60.14
2017-08-03T07:12:59.034Z,59.76
2017-08-03T07:15:31.409Z,60.22
2017-08-03T07:18:04.005Z,60.39
2017-08-03T07:20:36.912Z,60.26
2017-08-03T07:23:09.458Z,60.32
2017-08-03T07:25:43.295Z,60.79
2017-08-03T07:28:16.233Z,60.64
2017-08-03T07:30:50.063Z,60.50
2017-08-03T07:33:22.367Z,60.17
2017-08-03T07:36:01.741Z,60.31
2017-08-03T07:38:40.191Z,60.22
2017-08-03T07:41:21.008Z,60.34
2017-08-03T07:43:57.089Z,60.23
2017-08-03T07:46:44.387Z,60.41
2017-08-03T07:49:17.525Z,60.29
2017-08-03T07:51:50.402Z,60.25
2017-08-03T07:54:23.377Z,60.29
2017-08-03T07:56:57.014Z,60.70
2017-08-03T07:59:29.359Z,60.48
2017-08-03T08:02:01.795Z,60.37
2017-08-03T08:04:34.880Z,60.32
2017-08-03T08:07:07.418Z,60.57
2017-08-03T08:09:43.751Z,60.69
2017-08-03T08:12:16.138Z,60.92
2017-08-03T08:14:49.956Z,60.78
2017-08-03T08:17:22.832Z,60.88
2017-08-03T08:19:55.735Z,61.12
2017-08-03T08:22:29.654Z,61.12
2017-08-03T08:25:06.742Z,60.90
2017-08-03T08:27:39.252Z,61.17
2017-08-03T08:30:12.075Z,61.16
2017-08-03T08:32:47.637Z,61.20
2017-08-03T08:35:21.081Z,61.40
2017-08-03T08:37:53.545Z,61.45
2017-08-03T08:40:25.622Z,61.67
2017-08-03T08:42:57.792Z,61.64
2017-08-03T08:45:30.345Z,62.17
2017-08-03T08:48:02.546Z,62.21
2017-08-03T08:50:35.536Z,61.97
2017-08-03T08:53:09.046Z,62.26
2017-08-03T08:55:44.225Z,62.52
2017-08-03T08:58:17.576Z,62.52
2017-08-03T09:00:50.148Z,62.40
2017-08-03T09:03:22.186Z,62.39
2017-08-03T09:05:55.125Z,62.75
2017-08-03T09:08:28.381Z,62.62
2017-08-03T09:11:00.937Z,62.64
2017-08-03T09:13:33.072Z,62.66
2017-08-03T09:16:05.144Z,62.46
2017-08-03T09:18:37.382Z,62.78
2017-08-03T09:21:09.928Z,62.48
2017-08-03T09:23:44.277Z,62.55
2017-08-03T09:26:16.596Z,62.70
2017-08-03T09:28:49.506Z,62.50
2017-08-03T09:31:21.839Z,62.37
2017-08-03T09:33:54.056Z,62.43
2017-08-03T09:36:26.179Z,62.45
2017-08-03T09:38:59.573Z,62.54
2017-08-03T09:41:31.608Z,62.65
2017-08-03T09:44:03.641Z,62.49
2017-08-03T09:46:36.007Z,62.77
2017-08-03T09:49:08.406Z,62.58
2017-08-03T09:51:44.079Z,62.61
2017-08-03T09:54:16.473Z,62.67
2017-08-03T09:56:49.774Z,62.50
2017-08-03T09:59:23.238Z,62.80
2017-08-03T10:01:58.268Z,62.80
2017-08-03T10:04:30.744Z,62.48
2017-08-03T10:07:03.358Z,62.55
2017-08-03T10:09:35.772Z,62.36
2017-08-03T10:12:07.766Z,62.50
2017-08-03T10:14:40.398Z,62.55
2017-08-03T10:17:15.293Z,62.37
2017-08-03T10:19:49.699Z,62.38
2017-08-03T10:22:22.257Z,62.19
2017-08-03T10:24:55.454Z,62.30
2017-08-03T10:27:28.337Z,62.31
2017-08-03T10:30:00.562Z,62.35
2017-08-03T10:32:32.934Z,62.23
2017-08-03T10:35:05.586Z,62.30
2017-08-03T10:37:38.151Z,62.26
2017-08-03T10:40:10.460Z,62.14
2017-08-03T10:42:44.727Z,62.33
2017-08-03T10:45:17.277Z,62.23
2017-08-03T10:47:50.661Z,62.23
2017-08-03T10:50:23.010Z,62.54
2017-08-03T10:52:55.722Z,62.57
2017-08-03T10:55:28.044Z,62.59
2017-08-03T10:58:00.339Z,62.53
2017-08-03T11:00:32.501Z,62.54
2017-08-03T11:03:04.648Z,62.64
2017-08-03T11:05:39.672Z,62.65
2017-08-03T11:08:12.267Z,62.88
2017-08-03T11:10:46.807Z,63.16
2017-08-03T11:13:18.938Z,62.89
2017-08-03T11:15:52.960Z,62.99
2017-08-03T11:18:25.542Z,63.17
2017-08-03T11:20:59.875Z,63.25
2017-08-03T11:23:33.288Z,63.17
2017-08-03T11:26:06.636Z,63.30
2017-08-03T11:28:39.885Z,63.13
2017-08-03T11:31:12.773Z,63.24
2017-08-03T11:33:46.876Z,63.03
2017-08-03T11:36:31.005Z,63.12
2017-08-03T11:39:03.008Z,63.05
2017-08-03T11:41:35.315Z,63.12
2017-08-03T11:44:08.321Z,62.82
2017-08-03T11:46:40.642Z,62.75
2017-08-03T11:49:14.577Z,62.70
2017-08-03T11:51:50.153Z,62.67
2017-08-03T11:54:22.247Z,62.88
2017-08-03T11:56:54.564Z,62.82
2017-08-03T11:59:26.683Z,62.82
2017-08-03T12:01:59.546Z,62.64
2017-08-03T12:04:32.021Z,62.43
2017-08-03T12:07:04.323Z,62.42
2017-08-03T12:09:37.083Z,62.42
2017-08-03T12:12:09.417Z,62.48
2017-08-03T12:14:43.296Z,62.64
2017-08-03T12:17:16.535Z,62.59
2017-08-03T12:19:51.068Z,62.69
2017-08-03T12:22:23.131Z,62.74
2017-08-03T12:24:55.677Z,62.62
2017-08-03T12:27:28.347Z,62.57
2017-08-03T12:30:00.538Z,62.74
2017-08-03T12:32:32.957Z,62.79
2017-08-03T12:35:05.090Z,62.74
2017-08-03T12:37:38.151Z,62.65
2017-08-03T12:40:10.364Z,62.12
2017-08-03T12:42:44.788Z,61.98
2017-08-03T12:45:18.588Z,61.77
2017-08-03T12:47:50.590Z,61.76
2017-08-03T12:50:22.741Z,61.72
2017-08-03T12:52:55.083Z,61.62
2017-08-03T12:55:27.377Z,61.51
2017-08-03T12:57:59.829Z,61.54
2017-08-03T13:00:32.096Z,61.45
2017-08-03T13:03:04.318Z,61.40
2017-08-03T13:05:37.693Z,61.36
2017-08-03T13:08:10.290Z,61.42
2017-08-03T13:10:45.561Z,61.23
2017-08-03T13:13:17.930Z,61.24
2017-08-03T13:15:49.991Z,61.20
2017-08-03T13:18:23.178Z,61.30
2017-08-03T13:20:55.905Z,61.26
2017-08-03T13:23:28.640Z,61.31
2017-08-03T13:26:00.766Z,61.22
2017-08-03T13:28:38.230Z,60.91
2017-08-03T13:31:10.907Z,60.75
2017-08-03T13:33:45.350Z,60.70
2017-08-03T13:36:17.635Z,60.44
2017-08-03T13:38:50.324Z,60.19
2017-08-03T13:41:22.236Z,60.05
2017-08-03T13:43:54.657Z,59.78
2017-08-03T13:46:26.745Z,59.64
2017-08-03T13:49:04.064Z,59.38
2017-08-03T13:51:37.362Z,59.17
2017-08-03T13:54:09.774Z,58.90
2017-08-03T13:56:44.163Z,58.61
2017-08-03T13:59:16.415Z,58.31
2017-08-03T14:01:48.550Z,58.48
2017-08-03T14:04:20.940Z,57.95
2017-08-03T14:06:53.784Z,57.85
2017-08-03T14:09:26.251Z,57.81
2017-08-03T14:11:58.421Z,57.53
2017-08-03T14:14:30.445Z,57.66
2017-08-03T14:17:02.639Z,57.54
2017-08-03T14:19:34.715Z,57.20
2017-08-03T14:22:07.189Z,56.78
2017-08-03T14:24:44.376Z,56.74
2017-08-03T14:27:48.806Z,56.81
2017-08-03T14:30:21.049Z,56.39
2017-08-03T14:32:53.613Z,56.28
2017-08-03T14:35:25.563Z,56.37
2017-08-03T14:37:58.202Z,56.12
2017-08-03T14:40:30.158Z,56.18
2017-08-03T14:43:02.680Z,56.00
2017-08-03T14:45:34.970Z,56.00
2017-08-03T14:48:08.444Z,55.82
2017-08-03T14:50:43.010Z,55.70
2017-08-03T14:53:16.161Z,55.82
2017-08-03T14:55:50.010Z,56.14
2017-08-03T14:58:23.465Z,56.05
2017-08-03T15:00:55.854Z,56.35
2017-08-03T15:03:27.906Z,56.30
2017-08-03T15:06:00.258Z,56.20
2017-08-03T15:08:32.674Z,56.41
2017-08-03T15:11:06.130Z,56.54
2017-08-03T15:13:38.311Z,56.58
2017-08-03T15:16:10.581Z,56.59
2017-08-03T15:18:43.076Z,56.50
2017-08-03T15:21:15.717Z,56.31
2017-08-03T15:23:49.155Z,56.57
2017-08-03T15:26:21.316Z,56.75
2017-08-03T15:28:53.253Z,56.86
2017-08-03T15:31:52.454Z,56.96
2017-08-03T15:34:24.593Z,56.62
2017-08-03T15:36:56.849Z,56.56
2017-08-03T15:39:29.361Z,56.68
2017-08-03T15:42:01.739Z,56.40
2017-08-03T15:44:34.103Z,56.43
2017-08-03T15:47:06.997Z,56.33
2017-08-03T15:49:39.857Z,56.09
2017-08-03T15:52:12.448Z,56.10
2017-08-03T15:54:48.388Z,56.47
2017-08-03T15:57:21.204Z,56.36
2017-08-03T15:59:54.393Z,56.39
2017-08-03T16:02:27.049Z,56.26
2017-08-03T16:05:00.576Z,56.45
2017-08-03T16:07:32.892Z,56.51
2017-08-03T16:10:05.050Z,56.39
2017-08-03T16:12:37.581Z,56.39
2017-08-03T16:15:10.266Z,56.37
2017-08-03T16:17:43.978Z,56.23
2017-08-03T16:20:16.626Z,56.39
2017-08-03T16:22:49.374Z,56.40
2017-08-03T16:25:22.014Z,56.33
2017-08-03T16:27:54.678Z,56.40
2017-08-03T16:30:28.307Z,56.64
2017-08-03T16:33:02.698Z,56.24
2017-08-03T16:35:34.962Z,56.23
2017-08-03T16:38:07.221Z,56.08
2017-08-03T16:40:39.954Z,56.15
2017-08-03T16:43:12.454Z,56.11
2017-08-03T16:45:47.460Z,56.07
2017-08-03T16:48:19.812Z,56.15
2017-08-03T16:50:52.702Z,56.03
2017-08-03T16:53:24.898Z,56.05
2017-08-03T16:55:57.601Z,55.72
2017-08-03T17:00:37.182Z,55.84
2017-08-03T17:03:11.186Z,55.89
2017-08-03T17:05:48.382Z,55.79
2017-08-03T17:08:21.014Z,55.72
2017-08-03T17:10:54.374Z,55.39
2017-08-03T17:13:26.727Z,55.52
2017-08-03T17:15:59.698Z,55.84
2017-08-03T17:18:32.443Z,55.99
2017-08-03T17:21:04.993Z,55.92
2017-08-03T17:23:37.467Z,55.85
2017-08-03T17:26:17.321Z,55.84
2017-08-03T17:28:52.663Z,55.96
2017-08-03T17:31:24.894Z,56.20
2017-08-03T17:34:06.530Z,56.35
2017-08-03T17:36:39.181Z,56.50
2017-08-03T17:39:11.693Z,56.29
2017-08-03T17:41:46.324Z,56.16
2017-08-03T17:44:18.946Z,56.24
2017-08-03T17:46:50.960Z,56.19
2017-08-03T17:49:22.965Z,56.04
2017-08-03T17:51:55.387Z,55.35
2017-08-03T17:54:27.504Z,54.07
2017-08-03T17:56:59.791Z,53.95
2017-08-03T17:59:32.697Z,53.91
2017-08-03T18:02:05.536Z,54.08
2017-08-03T18:04:38.526Z,53.48
2017-08-03T18:07:10.670Z,54.13
2017-08-03T18:09:46.194Z,53.84
2017-08-03T18:12:18.617Z,53.10
2017-08-03T18:14:50.967Z,53.27
2017-08-03T18:17:23.161Z,53.01
2017-08-03T18:19:56.195Z,53.07
2017-08-03T18:22:28.439Z,53.13
2017-08-03T18:25:01.516Z,53.22
2017-08-03T18:27:40.502Z,53.46
2017-08-03T18:30:13.515Z,53.35
2017-08-03T18:32:46.013Z,53.48
2017-08-03T18:35:39.705Z,53.49
2017-08-03T18:38:13.974Z,53.65
2017-08-03T18:40:49.697Z,53.86
2017-08-03T18:43:22.332Z,54.00
2017-08-03T18:45:54.813Z,53.87
2017-08-03T18:48:27.013Z,53.98
2017-08-03T18:50:59.429Z,54.03
2017-08-03T18:53:32.110Z,54.12
2017-08-03T18:56:04.361Z,54.26
2017-08-03T18:58:36.706Z,54.13
2017-08-03T19:01:18.250Z,54.30
2017-08-03T19:03:51.622Z,54.56
2017-08-03T19:06:24.087Z,54.48
2017-08-03T19:08:56.507Z,54.73
2017-08-03T19:11:30.061Z,54.88
2017-08-03T19:14:02.985Z,54.94
2017-08-03T19:16:36.046Z,55.05
2017-08-03T19:19:08.293Z,54.86
2017-08-03T19:21:40.521Z,55.54
2017-08-03T19:24:13.323Z,55.38
2017-08-03T19:26:48.476Z,55.19
2017-08-03T19:29:21.205Z,55.40
2017-08-03T19:31:53.839Z,55.38
2017-08-03T19:34:27.584Z,55.33
2017-08-03T19:37:00.223Z,55.38
2017-08-03T19:39:32.424Z,55.04
2017-08-03T19:42:05.312Z,55.57
2017-08-03T19:44:50.873Z,55.77
2017-08-03T19:47:25.461Z,55.75
2017-08-03T19:50:00.419Z,55.98
2017-08-03T19:52:42.663Z,56.13
2017-08-03T19:55:22.104Z,56.34
2017-08-03T19:58:02.264Z,56.20
2017-08-03T20:00:49.283Z,56.33
2017-08-03T20:03:22.571Z,56.51
2017-08-03T20:06:01.147Z,56.53
2017-08-03T20:08:42.879Z,56.93
2017-08-03T20:11:21.263Z,57.07
2017-08-03T20:13:53.682Z,57.25
2017-08-03T20:16:26.491Z,57.34
2017-08-03T20:18:58.911Z,57.36
2017-08-03T20:21:31.580Z,57.21
2017-08-03T20:24:04.510Z,57.08
2017-08-03T20:26:36.521Z,56.94
2017-08-03T20:29:10.396Z,57.01
2017-08-03T20:31:44.751Z,57.49
2017-08-03T20:34:18.780Z,57.51
2017-08-03T20:36:50.752Z,57.51
2017-08-03T20:39:23.254Z,57.76
2017-08-03T20:41:55.465Z,57.74
2017-08-03T20:44:27.601Z,57.79
2017-08-03T20:47:01.827Z,57.71
2017-08-03T20:49:33.922Z,57.65
2017-08-03T20:52:06.410Z,57.51
2017-08-03T20:54:38.857Z,57.72
2017-08-03T20:57:11.016Z,57.92
2017-08-03T20:59:55.241Z,58.23
2017-08-03T21:02:27.317Z,58.18
2017-08-03T21:05:00.723Z,57.83
2017-08-03T21:10:17.169Z,58.00
2017-08-03T21:12:50.089Z,57.92
2017-08-03T21:15:22.673Z,57.56
2017-08-03T21:17:54.803Z,57.93
2017-08-03T21:20:27.834Z,57.48
2017-08-03T21:23:00.085Z,57.57
2017-08-03T21:25:32.909Z,57.57
2017-08-03T21:28:05.162Z,57.65
2017-08-03T21:30:37.860Z,57.37
2017-08-03T21:33:10.091Z,57.36
2017-08-03T21:35:44.146Z,57.63
2017-08-03T21:38:16.830Z,57.42
2017-08-03T21:40:49.684Z,57.49
2017-08-03T21:43:21.842Z,57.43
2017-08-03T21:45:54.794Z,57.14
2017-08-03T21:48:28.196Z,56.76
2017-08-03T21:51:00.604Z,57.05
2017-08-03T21:53:32.787Z,57.18
2017-08-03T21:56:05.449Z,57.16
2017-08-03T21:58:37.809Z,57.12
2017-08-03T22:01:18.058Z,57.12
2017-08-03T22:03:50.737Z,56.99
2017-08-03T22:06:23.270Z,56.93
2017-08-03T22:08:55.467Z,57.43
2017-08-03T22:11:27.872Z,58.17
2017-08-03T22:14:00.799Z,58.88
2017-08-03T22:16:33.494Z,59.35
2017-08-03T22:19:06.114Z,59.84
2017-08-03T22:21:38.709Z,60.12
2017-08-03T22:24:10.729Z,59.65
2017-08-03T22:26:45.468Z,59.47
2017-08-03T22:29:18.682Z,60.00
2017-08-03T22:31:50.910Z,60.14
2017-08-03T22:34:23.097Z,60.02
2017-08-03T22:36:57.815Z,59.88
2017-08-03T22:39:29.735Z,59.86
2017-08-03T22:42:02.980Z,59.63
2017-08-03T22:44:35.321Z,59.76
2017-08-03T22:47:08.312Z,59.99
2017-08-03T22:49:40.649Z,59.94
2017-08-03T22:52:15.348Z,60.13
2017-08-03T22:54:49.641Z,59.94
2017-08-03T22:57:22.323Z,60.40
2017-08-03T22:59:54.464Z,60.39
2017-08-03T23:02:26.841Z,60.40
2017-08-03T23:04:58.930Z,60.41
2017-08-03T23:07:31.435Z,60.73
2017-08-03T23:10:04.689Z,60.88
2017-08-03T23:12:38.038Z,60.65
2017-08-03T23:15:10.573Z,60.86
2017-08-03T23:17:48.239Z,61.14
2017-08-03T23:20:20.426Z,60.88
2017-08-03T23:22:54.022Z,61.08
2017-08-03T23:25:26.212Z,61.05
2017-08-03T23:27:58.863Z,61.17
2017-08-03T23:30:31.448Z,61.37
2017-08-03T23:33:06.293Z,61.26
2017-08-03T23:35:38.218Z,61.46
2017-08-03T23:38:11.160Z,61.69
2017-08-03T23:40:45.084Z,61.70
2017-08-03T23:43:17.091Z,61.91
2017-08-03T23:45:51.073Z,61.67
2017-08-03T23:48:23.367Z,61.61
2017-08-03T23:50:55.633Z,61.86
2017-08-03T23:53:27.595Z,62.16
2017-08-03T23:56:00.506Z,61.77
2017-08-03T23:58:32.835Z,61.62
